Prairie Ridge, Washington
Current Conditions -  °F | °C
As of 7:08 PM on Friday 21 Nov 2014 (Local Time) from KTCM Reporting Station
Light Rain Light Rain  
Wind Chill: 52°   Ceiling: 1500
Heat Index: 52°   Visibility: 9mi
Dew Point: 52°   Wind: 21mph
Humidity: 100%   Direction: 210°SSW
Pressure: 29.38"   Gusts: 29mph
Location:  47.1874°N, 122.164°W
Report Text: KTCM 220308Z AUTO 21018G25KT 9SM -RA SCT010 BKN015 OVC060 11/11 A2938 RMK AO2 CIG 009V015
Loading
Personal Weather Stations






























Interactive Weather Map New forecast layout! Learn more

10-Day Weather Forecast

Advertisements
Track Severe Weather on mobile